Time;durP1;ratioP1;P1;durP2;ratioP2;P2;SDS_P1;SDS_P2;PMS_P1;PMS_P2;Temp;Humidity;BMP_temperature;BMP_pressure;BME280_temperature;BME280_humidity;BME280_pressure;Samples;Min_cycle;Max_cycle;Signal;HPM_P1;HPM_P2
2024/02/18 00:01:19;;;;;;;8.55;6.35;;;;;;;4.33;100.00;99222.78;1225243;75;2913384;-65
2024/02/18 00:03:52;;;;;;;6.50;5.50;;;;;;;4.33;100.00;99212.72;1224505;75;2918370;-65
2024/02/18 00:06:25;;;;;;;5.60;5.00;;;;;;;4.26;100.00;99213.53;1224397;75;2915701;-65
2024/02/18 00:08:58;;;;;;;6.40;5.40;;;;;;;4.05;100.00;99221.75;1223508;75;2937918;-64
2024/02/18 00:11:31;;;;;;;9.55;7.70;;;;;;;3.82;100.00;99235.75;1224426;75;2918116;-65
2024/02/18 00:14:04;;;;;;;7.55;6.75;;;;;;;4.13;100.00;99231.38;1223354;75;2926125;-65
2024/02/18 00:16:40;;;;;;;5.25;4.75;;;;;;;4.31;100.00;99220.47;1224052;75;2916714;-64
2024/02/18 00:19:13;;;;;;;4.15;3.75;;;;;;;4.31;100.00;99228.63;1224409;75;2912928;-64
2024/02/18 00:21:46;;;;;;;4.35;3.70;;;;;;;4.29;100.00;99225.53;1223919;75;2923261;-65
2024/02/18 00:24:19;;;;;;;3.55;3.15;;;;;;;4.22;100.00;99229.03;1224081;75;2914521;-64
2024/02/18 00:26:53;;;;;;;4.30;3.65;;;;;;;4.20;100.00;99231.34;1224033;67;2919305;-65
2024/02/18 00:29:26;;;;;;;5.00;4.30;;;;;;;4.18;100.00;99241.06;1223535;75;2923174;-66
2024/02/18 00:32:01;;;;;;;4.30;3.80;;;;;;;4.32;100.00;99240.22;1224176;75;2936347;-66
2024/02/18 00:34:34;;;;;;;7.80;7.00;;;;;;;4.01;100.00;99232.59;1224151;75;2931719;-65
2024/02/18 00:37:07;;;;;;;7.75;5.50;;;;;;;4.15;100.00;99229.06;1224797;75;2919161;-66
2024/02/18 00:39:40;;;;;;;5.90;5.15;;;;;;;4.13;100.00;99236.03;1223743;75;2918221;-64
2024/02/18 00:42:13;;;;;;;6.15;4.90;;;;;;;4.29;100.00;99232.88;1224375;75;2912233;-65
2024/02/18 00:44:45;;;;;;;5.05;4.55;;;;;;;4.21;100.00;99226.69;1224594;75;2923022;-66
2024/02/18 00:47:21;;;;;;;5.60;5.00;;;;;;;4.30;100.00;99227.06;1224276;75;2914409;-62
2024/02/18 00:49:54;;;;;;;6.05;5.45;;;;;;;4.25;100.00;99233.66;1224075;75;2914969;-66
2024/02/18 00:52:27;;;;;;;7.55;6.00;;;;;;;4.26;100.00;99234.44;1223097;75;2921611;-65
2024/02/18 00:55:00;;;;;;;7.90;5.70;;;;;;;4.22;100.00;99229.03;1223291;75;2920399;-65
2024/02/18 00:57:33;;;;;;;6.70;5.55;;;;;;;4.36;100.00;99228.19;1224286;75;2910666;-65
2024/02/18 01:00:10;;;;;;;4.85;4.20;;;;;;;4.47;100.00;99225.41;1224197;75;2916942;-64
2024/02/18 01:02:45;;;;;;;4.90;3.85;;;;;;;4.51;100.00;99228.13;1224499;75;2921350;-66
2024/02/18 01:05:18;;;;;;;5.95;5.15;;;;;;;4.25;100.00;99238.31;1224543;75;2920547;-66
2024/02/18 01:07:51;;;;;;;4.65;4.10;;;;;;;4.44;100.00;99231.66;1224210;75;2913073;-67
2024/02/18 01:10:24;;;;;;;5.75;4.35;;;;;;;4.52;100.00;99237.78;1223624;75;2872066;-64
2024/02/18 01:12:58;;;;;;;9.15;7.45;;;;;;;3.99;100.00;99239.56;1222747;75;2916043;-65
2024/02/18 01:15:30;;;;;;;8.25;7.15;;;;;;;3.88;100.00;99239.59;1221988;75;2911942;-65
2024/02/18 01:18:06;;;;;;;7.30;6.30;;;;;;;4.04;100.00;99242.66;1224881;75;2920717;-65
2024/02/18 01:20:39;;;;;;;6.65;5.75;;;;;;;4.23;100.00;99241.44;1223801;75;2917626;-64
2024/02/18 01:23:14;;;;;;;6.80;4.60;;;;;;;4.43;100.00;99249.84;1188157;75;5857355;-66
2024/02/18 01:25:47;;;;;;;4.15;3.65;;;;;;;4.37;100.00;99248.72;1223317;75;2912975;-68
2024/02/18 01:28:20;;;;;;;4.95;4.20;;;;;;;4.34;100.00;99243.31;1224787;75;2922100;-64
2024/02/18 01:30:53;;;;;;;4.75;4.20;;;;;;;4.31;100.00;99249.53;1223027;75;2914080;-67
2024/02/18 01:33:28;;;;;;;5.00;4.25;;;;;;;4.42;100.00;99242.09;1224244;75;2929622;-65
2024/02/18 01:36:01;;;;;;;4.50;3.75;;;;;;;4.50;100.00;99246.34;1223189;75;2915546;-67
2024/02/18 01:38:34;;;;;;;3.80;3.30;;;;;;;4.53;100.00;99248.25;1224196;75;2922178;-66
2024/02/18 01:41:07;;;;;;;4.95;4.45;;;;;;;4.31;100.00;99247.59;1224301;67;2922942;-65
2024/02/18 01:43:40;;;;;;;4.65;4.15;;;;;;;4.31;100.00;99254.97;1223533;75;2920848;-66
2024/02/18 01:46:13;;;;;;;4.55;3.85;;;;;;;4.38;100.00;99261.13;1222824;75;2912320;-65
2024/02/18 01:48:49;;;;;;;3.80;3.40;;;;;;;4.33;100.00;99258.03;1187457;75;5760391;-65
2024/02/18 01:51:22;;;;;;;4.45;3.40;;;;;;;4.23;100.00;99265.03;1223814;75;2914498;-63
2024/02/18 01:53:55;;;;;;;3.80;3.05;;;;;;;4.22;100.00;99258.84;1198983;75;4908261;-66
2024/02/18 01:56:29;;;;;;;3.15;2.40;;;;;;;4.19;100.00;99259.66;1224382;75;2920971;-66
2024/02/18 01:59:02;;;;;;;2.90;2.30;;;;;;;4.15;100.00;99256.16;1224117;75;2986868;-66
2024/02/18 02:01:35;;;;;;;2.45;2.25;;;;;;;4.13;100.00;99255.78;1224196;75;2920378;-65
2024/02/18 02:04:11;;;;;;;2.95;2.45;;;;;;;4.08;100.00;99248.06;1223499;75;2910398;-66
2024/02/18 02:06:44;;;;;;;2.60;2.40;;;;;;;4.03;100.00;99251.94;1225016;75;2916859;-66
2024/02/18 02:09:17;;;;;;;2.85;2.45;;;;;;;3.99;100.00;99253.13;1222398;75;2976907;-66
2024/02/18 02:11:50;;;;;;;3.30;3.00;;;;;;;3.95;100.00;99255.84;1223219;75;2917671;-65
2024/02/18 02:14:24;;;;;;;2.50;2.30;;;;;;;4.01;100.00;99250.78;1224368;75;2919096;-66
2024/02/18 02:16:57;;;;;;;2.95;2.50;;;;;;;3.90;100.00;99247.34;1224057;75;2924960;-65
2024/02/18 02:19:32;;;;;;;3.20;2.55;;;;;;;3.80;100.00;99254.31;1224237;75;2915433;-66
2024/02/18 02:22:05;;;;;;;3.55;2.90;;;;;;;3.77;100.00;99257.81;1224176;75;2949918;-64
2024/02/18 02:24:39;;;;;;;6.05;5.30;;;;;;;3.18;100.00;99269.84;1224527;75;2914544;-66
2024/02/18 02:27:15;;;;;;;7.00;6.30;;;;;;;3.14;100.00;99271.00;1224914;75;2925293;-67
2024/02/18 02:29:52;;;;;;;7.85;6.95;;;;;;;3.01;100.00;99264.41;1223866;75;2919531;-67
2024/02/18 02:32:25;;;;;;;6.85;6.15;;;;;;;3.26;100.00;99264.44;1224104;75;2918489;-63
2024/02/18 02:34:57;;;;;;;5.95;5.35;;;;;;;3.07;100.00;99269.06;1224825;75;2922410;-63
2024/02/18 02:37:31;;;;;;;9.95;6.75;;;;;;;3.26;100.00;99264.44;1224581;75;2915988;-68
2024/02/18 02:40:04;;;;;;;5.85;5.15;;;;;;;3.47;100.00;99264.44;1224723;75;2917561;-65
2024/02/18 02:42:36;;;;;;;6.30;5.70;;;;;;;2.99;100.00;99260.19;1224424;75;2917678;-66
2024/02/18 02:45:13;;;;;;;7.45;6.35;;;;;;;2.93;100.00;99264.41;1224854;75;2915642;-66
2024/02/18 02:47:46;;;;;;;5.35;4.85;;;;;;;3.07;100.00;99257.47;1223928;75;2922159;-67
2024/02/18 02:50:19;;;;;;;6.45;5.40;;;;;;;2.78;100.00;99263.59;1223754;75;2916338;-67
2024/02/18 02:52:52;;;;;;;8.25;7.25;;;;;;;2.60;100.00;99265.50;1224739;75;2916948;-67
2024/02/18 02:55:25;;;;;;;7.50;6.45;;;;;;;2.73;100.00;99274.03;1222976;75;2919124;-64
2024/02/18 02:57:57;;;;;;;8.70;6.90;;;;;;;2.70;100.00;99266.69;1223391;75;2920228;-66
2024/02/18 03:00:34;;;;;;;6.45;5.30;;;;;;;2.95;100.00;99264.78;1219366;75;3141784;-63
2024/02/18 03:03:07;;;;;;;5.00;4.35;;;;;;;3.07;100.00;99273.72;1224424;75;2926325;-64
2024/02/18 03:05:40;;;;;;;5.50;4.60;;;;;;;2.96;100.00;99273.72;1224230;75;2948811;-66
2024/02/18 03:08:13;;;;;;;7.35;6.60;;;;;;;2.86;100.00;99269.03;1224905;75;2916626;-67
2024/02/18 03:10:46;;;;;;;6.20;5.60;;;;;;;2.97;100.00;99276.00;1222580;75;2914366;-66
2024/02/18 03:13:19;;;;;;;11.70;6.00;;;;;;;2.88;100.00;99267.50;1224076;75;2918079;-66
2024/02/18 03:15:55;;;;;;;5.75;5.15;;;;;;;2.98;100.00;99282.19;1224366;75;2914504;-64
2024/02/18 03:18:28;;;;;;;6.30;5.70;;;;;;;2.92;100.00;99281.03;1224383;75;2919895;-64
2024/02/18 03:21:01;;;;;;;6.65;4.60;;;;;;;3.13;100.00;99283.78;1224709;75;2914603;-66
2024/02/18 03:23:34;;;;;;;4.90;4.45;;;;;;;3.12;100.00;99281.44;1224733;75;2913264;-64
2024/02/18 03:26:07;;;;;;;4.65;4.05;;;;;;;3.20;100.00;99285.72;1225229;75;2919138;-66
2024/02/18 03:28:40;;;;;;;4.55;4.00;;;;;;;3.22;100.00;99286.09;1224509;75;2926780;-63
2024/02/18 03:31:23;;;;;;;5.30;4.70;;;;;;;3.14;100.00;99292.66;1224383;75;2914481;-64
2024/02/18 03:33:57;;;;;;;5.65;5.05;;;;;;;3.19;100.00;99293.03;1223597;75;2923013;-64
2024/02/18 03:36:30;;;;;;;4.20;3.80;;;;;;;3.40;100.00;99283.41;1211568;75;3899289;-67
2024/02/18 03:39:04;;;;;;;3.70;3.20;;;;;;;3.44;100.00;99289.59;1224275;75;2917413;-65
2024/02/18 03:41:37;;;;;;;4.20;3.75;;;;;;;3.42;100.00;99287.25;1223697;75;2918550;-64
2024/02/18 03:44:10;;;;;;;3.90;3.30;;;;;;;3.55;100.00;99289.56;1225214;75;2923975;-64
2024/02/18 03:46:46;;;;;;;3.10;2.80;;;;;;;3.57;100.00;99292.66;1224053;75;2917148;-64
2024/02/18 03:49:19;;;;;;;3.80;3.40;;;;;;;3.47;100.00;99290.75;1224099;75;2919190;-65
2024/02/18 03:51:52;;;;;;;3.75;3.35;;;;;;;3.64;100.00;99287.25;1224432;75;2918918;-65
2024/02/18 03:54:25;;;;;;;3.40;3.10;;;;;;;3.65;100.00;99285.31;1224125;75;2918405;-64
2024/02/18 03:56:58;;;;;;;4.10;3.30;;;;;;;3.69;100.00;99286.84;1224414;75;2919336;-62
2024/02/18 03:59:31;;;;;;;3.60;3.30;;;;;;;3.70;100.00;99290.31;1223931;75;2914875;-64
2024/02/18 04:02:06;;;;;;;3.20;2.90;;;;;;;3.84;100.00;99279.47;1224310;75;2912250;-65
2024/02/18 04:04:39;;;;;;;3.05;2.75;;;;;;;3.82;100.00;99285.31;1223725;75;2911469;-64
2024/02/18 04:07:13;;;;;;;2.95;2.70;;;;;;;3.83;100.00;99273.28;1224240;75;2932724;-65
2024/02/18 04:09:45;;;;;;;2.70;2.50;;;;;;;3.80;100.00;99279.50;1223045;75;2913531;-64
2024/02/18 04:12:18;;;;;;;2.70;2.45;;;;;;;3.88;100.00;99282.19;1224438;75;2916221;-65
2024/02/18 04:14:51;;;;;;;5.75;4.60;;;;;;;3.61;100.00;99288.03;1224303;75;2924720;-64
2024/02/18 04:17:27;;;;;;;7.55;6.75;;;;;;;3.50;100.00;99290.72;1223964;75;2920992;-66
2024/02/18 04:20:00;;;;;;;7.60;6.90;;;;;;;3.43;100.00;99293.44;1224070;75;2918924;-64
2024/02/18 04:22:33;;;;;;;5.95;5.35;;;;;;;3.67;100.00;99297.28;1223789;75;2915612;-64
2024/02/18 04:25:06;;;;;;;5.05;4.55;;;;;;;3.83;100.00;99297.66;1224210;75;2915084;-64
2024/02/18 04:27:39;;;;;;;5.65;5.10;;;;;;;3.69;100.00;99296.91;1224721;75;2926429;-64
2024/02/18 04:30:13;;;;;;;4.80;4.10;;;;;;;3.71;100.00;99289.94;1224370;75;2912560;-64
2024/02/18 04:32:48;;;;;;;7.05;6.00;;;;;;;3.74;100.00;99280.28;1220444;75;2921324;-65
2024/02/18 04:35:21;;;;;;;7.45;5.25;;;;;;;3.67;100.00;99281.03;1224237;75;2916583;-65
2024/02/18 04:37:54;;;;;;;9.50;8.45;;;;;;;3.34;100.00;99285.72;1222872;75;2919942;-65
2024/02/18 04:40:27;;;;;;;7.90;7.10;;;;;;;3.50;100.00;99289.97;1222622;75;2921630;-64
2024/02/18 04:43:00;;;;;;;7.95;6.05;;;;;;;3.62;100.00;99294.97;1224640;75;2925914;-65
2024/02/18 04:45:33;;;;;;;9.55;8.65;;;;;;;3.25;100.00;99290.75;1224142;75;2920615;-64
2024/02/18 04:48:09;;;;;;;8.65;7.70;;;;;;;3.40;100.00;99289.56;1223922;75;2913795;-65
2024/02/18 04:50:42;;;;;;;6.60;5.80;;;;;;;3.47;100.00;99279.91;1223900;75;2920556;-63
2024/02/18 04:53:14;;;;;;;9.00;8.10;;;;;;;3.26;100.00;99284.16;1223784;75;2919158;-64
2024/02/18 04:55:47;;;;;;;7.65;6.75;;;;;;;3.56;100.00;99282.97;1223356;75;2915821;-64
2024/02/18 04:58:20;;;;;;;5.30;4.80;;;;;;;3.71;100.00;99281.06;1224285;75;2918027;-64
2024/02/18 05:00:53;;;;;;;6.45;5.85;;;;;;;3.49;100.00;99278.38;1223756;75;2915287;-65
2024/02/18 05:03:28;;;;;;;6.35;5.55;;;;;;;3.50;100.00;99282.59;1223838;75;2919799;-66
2024/02/18 05:06:01;;;;;;;6.80;5.85;;;;;;;3.44;100.00;99280.66;1224571;75;2917070;-64
2024/02/18 05:08:34;;;;;;;7.55;6.80;;;;;;;3.22;100.00;99285.31;1223629;75;2923642;-66
2024/02/18 05:11:07;;;;;;;8.20;7.30;;;;;;;3.15;100.00;99289.56;1224015;75;2916892;-64
2024/02/18 05:13:40;;;;;;;9.10;8.00;;;;;;;3.13;100.00;99281.06;1224324;75;2924780;-66
2024/02/18 05:16:13;;;;;;;8.50;7.60;;;;;;;3.08;100.00;99286.06;1224417;75;2912492;-66
2024/02/18 05:18:51;;;;;;;9.25;8.35;;;;;;;2.98;100.00;99266.75;1223574;75;2917479;-65
2024/02/18 05:21:23;;;;;;;9.40;8.50;;;;;;;3.08;100.00;99270.63;1224250;75;2914608;-65
2024/02/18 05:23:57;;;;;;;8.50;7.70;;;;;;;3.05;100.00;99265.19;1223845;75;2923151;-63
2024/02/18 05:26:29;;;;;;;8.75;7.90;;;;;;;3.13;100.00;99277.59;1224966;75;2909186;-64
2024/02/18 05:29:02;;;;;;;8.35;7.25;;;;;;;3.23;100.00;99281.47;1224011;75;2911772;-62
2024/02/18 05:31:35;;;;;;;6.10;5.50;;;;;;;3.45;100.00;99271.41;1224043;75;2916499;-63
2024/02/18 05:34:11;;;;;;;5.60;5.10;;;;;;;3.55;100.00;99279.50;1224278;75;2936891;-64
2024/02/18 05:36:44;;;;;;;5.20;4.60;;;;;;;3.54;100.00;99272.56;1224653;75;2921595;-63
2024/02/18 05:39:17;;;;;;;3.75;3.35;;;;;;;3.70;100.00;99274.06;1223414;75;2929739;-65
2024/02/18 05:41:50;;;;;;;4.00;3.60;;;;;;;3.64;100.00;99273.72;1224868;75;2916981;-65
2024/02/18 05:44:23;;;;;;;4.45;3.50;;;;;;;3.68;100.00;99279.09;1224460;75;2915758;-63
2024/02/18 05:46:56;;;;;;;3.45;3.10;;;;;;;3.83;100.00;99283.34;1224075;75;2918756;-64
2024/02/18 05:49:32;;;;;;;3.05;2.75;;;;;;;3.89;100.00;99289.13;1223263;75;2914954;-64
2024/02/18 05:52:04;;;;;;;3.35;3.00;;;;;;;3.96;100.00;99287.19;1223907;75;2914354;-65
2024/02/18 05:54:37;;;;;;;2.35;2.15;;;;;;;4.01;100.00;99286.78;1223618;75;2915567;-65
2024/02/18 05:57:12;;;;;;;6.45;3.65;;;;;;;3.92;100.00;99293.78;1219854;75;2945616;-64
2024/02/18 05:59:45;;;;;;;7.65;5.05;;;;;;;3.77;100.00;99293.78;1196139;75;4991519;-64
2024/02/18 06:02:20;;;;;;;6.95;6.25;;;;;;;3.66;100.00;99295.00;1174239;75;5548756;-63
2024/02/18 06:04:56;;;;;;;6.00;5.40;;;;;;;3.75;100.00;99300.75;1221231;75;2991833;-63
2024/02/18 06:07:29;;;;;;;5.90;5.30;;;;;;;3.69;100.00;99294.22;1223443;75;2914892;-64
2024/02/18 06:10:02;;;;;;;7.30;6.55;;;;;;;3.42;100.00;99302.75;1224043;75;2923355;-63
2024/02/18 06:12:34;;;;;;;7.55;6.75;;;;;;;3.31;100.00;99301.94;1223544;75;2916636;-62
2024/02/18 06:15:08;;;;;;;7.80;6.95;;;;;;;3.33;100.00;99305.81;1223633;75;2917325;-66
2024/02/18 06:17:41;;;;;;;7.25;6.35;;;;;;;3.41;100.00;99301.16;1223134;75;2914304;-63
2024/02/18 06:20:17;;;;;;;7.45;6.70;;;;;;;3.39;100.00;99303.50;1224130;75;2914832;-63
2024/02/18 06:22:50;;;;;;;7.20;6.50;;;;;;;3.40;100.00;99305.06;1223337;75;2915180;-63
2024/02/18 06:25:23;;;;;;;6.10;5.50;;;;;;;3.59;100.00;99310.06;1213249;75;3655837;-64
2024/02/18 06:27:56;;;;;;;5.30;4.80;;;;;;;3.57;100.00;99306.97;1213759;75;3525414;-65
2024/02/18 06:30:29;;;;;;;4.80;4.30;;;;;;;3.84;100.00;99311.97;1223980;75;2924839;-63
2024/02/18 06:33:02;;;;;;;5.05;4.55;;;;;;;3.86;100.00;99317.03;1224429;75;2914182;-62
2024/02/18 06:35:37;;;;;;;5.95;5.35;;;;;;;3.73;100.00;99313.91;1222701;75;2914388;-63
2024/02/18 06:38:10;;;;;;;8.25;6.95;;;;;;;3.77;100.00;99315.47;1224608;75;2914789;-63
2024/02/18 06:40:43;;;;;;;6.85;5.90;;;;;;;4.06;100.00;99310.00;1223964;75;2912892;-63
2024/02/18 06:43:16;;;;;;;7.20;6.15;;;;;;;4.04;100.00;99317.75;1223769;75;2926991;-63
2024/02/18 06:45:49;;;;;;;7.20;6.10;;;;;;;4.10;100.00;99320.84;1223627;75;2920681;-63
2024/02/18 06:48:22;;;;;;;6.25;5.30;;;;;;;4.07;100.00;99327.06;1224894;75;2920028;-61
2024/02/18 06:50:57;;;;;;;8.10;7.10;;;;;;;3.94;100.00;99327.44;1223848;75;2915717;-64
2024/02/18 06:53:30;;;;;;;6.90;5.50;;;;;;;4.05;100.00;99338.28;1224401;75;2918102;-65
2024/02/18 06:56:03;;;;;;;9.30;7.60;;;;;;;4.02;100.00;99330.94;1224072;75;2920739;-66
2024/02/18 06:58:36;;;;;;;7.60;6.40;;;;;;;4.34;100.00;99332.78;1223831;75;2919482;-62
2024/02/18 07:01:09;;;;;;;6.40;4.85;;;;;;;4.47;100.00;99340.09;1223899;75;2914981;-64
2024/02/18 07:03:42;;;;;;;6.95;5.05;;;;;;;4.45;100.00;99330.81;1224801;75;2915369;-63
2024/02/18 07:06:18;;;;;;;8.60;7.15;;;;;;;4.53;100.00;99337.75;1222924;75;2923749;-63
2024/02/18 07:08:50;;;;;;;6.65;5.95;;;;;;;4.56;100.00;99334.25;1223298;75;2917715;-65
2024/02/18 07:11:25;;;;;;;6.40;5.80;;;;;;;4.59;100.00;99332.69;1224152;75;2912945;-67
2024/02/18 07:13:58;;;;;;;5.40;4.90;;;;;;;4.73;100.00;99323.72;1223459;75;2935772;-64
2024/02/18 07:16:32;;;;;;;4.70;4.20;;;;;;;4.80;100.00;99329.09;1224433;75;2916356;-64
2024/02/18 07:19:04;;;;;;;5.35;4.80;;;;;;;4.69;100.00;99329.94;1224686;75;2919665;-65
2024/02/18 07:21:41;;;;;;;8.55;6.90;;;;;;;4.83;100.00;99331.03;1223425;75;2923945;-65
2024/02/18 07:24:14;;;;;;;6.20;5.60;;;;;;;5.41;100.00;99313.22;1223410;75;2929442;-65
2024/02/18 07:26:47;;;;;;;7.20;6.50;;;;;;;4.96;100.00;99324.00;1223575;75;2924048;-64
2024/02/18 07:29:20;;;;;;;8.10;7.30;;;;;;;5.38;100.00;99319.44;1224129;75;2913170;-66
2024/02/18 07:31:53;;;;;;;7.70;6.90;;;;;;;5.46;100.00;99318.22;1223363;75;2925206;-65
2024/02/18 07:34:26;;;;;;;6.20;5.40;;;;;;;5.48;100.00;99318.59;1223391;75;2919459;-62
2024/02/18 07:37:02;;;;;;;6.10;5.50;;;;;;;5.17;100.00;99323.09;1224203;75;2918365;-63
2024/02/18 07:39:34;;;;;;;8.90;7.20;;;;;;;5.20;100.00;99329.66;1223094;75;2918052;-63
2024/02/18 07:42:08;;;;;;;6.60;6.00;;;;;;;5.54;100.00;99325.13;1224054;75;2919364;-63
2024/02/18 07:44:41;;;;;;;6.75;6.10;;;;;;;5.45;100.00;99321.34;1224557;75;2922302;-64
2024/02/18 07:47:14;;;;;;;7.50;6.05;;;;;;;5.52;100.00;99311.19;1223722;75;2920411;-63
2024/02/18 07:49:47;;;;;;;7.40;6.60;;;;;;;5.31;100.00;99316.78;1223010;75;2925782;-65
2024/02/18 07:52:22;;;;;;;10.30;9.30;;;;;;;5.15;100.00;99317.28;1223974;75;2916307;-63
2024/02/18 07:54:55;;;;;;;7.90;7.10;;;;;;;5.32;100.00;99323.75;1223206;75;2922589;-63
2024/02/18 07:57:28;;;;;;;7.95;7.15;;;;;;;5.50;100.00;99329.81;1223984;75;2930652;-64
2024/02/18 08:00:01;;;;;;;8.40;7.60;;;;;;;5.46;100.00;99334.53;1223341;75;2914219;-65
2024/02/18 08:02:34;;;;;;;9.55;8.60;;;;;;;5.12;100.00;99323.50;1224159;75;2927590;-63
2024/02/18 08:05:08;;;;;;;10.60;9.50;;;;;;;5.69;100.00;99314.91;1223722;75;2931595;-65
2024/02/18 08:07:43;;;;;;;9.65;8.25;;;;;;;5.87;100.00;99317.50;1224036;75;2913142;-64
2024/02/18 08:10:16;;;;;;;13.25;10.45;;;;;;;5.37;100.00;99328.78;1222728;75;2923144;-65
2024/02/18 08:12:49;;;;;;;9.75;8.75;;;;;;;5.87;100.00;99316.69;1223947;75;2921870;-65
2024/02/18 08:15:22;;;;;;;9.00;8.10;;;;;;;6.28;100.00;99322.16;1224046;75;2923894;-63
2024/02/18 08:17:54;;;;;;;11.40;7.95;;;;;;;6.79;100.00;99317.63;1222294;75;2922792;-64
2024/02/18 08:20:27;;;;;;;6.75;6.05;;;;;;;7.20;100.00;99318.63;1222938;75;2920592;-64
2024/02/18 08:23:03;;;;;;;7.15;6.45;;;;;;;7.04;100.00;99322.72;1224055;75;2921132;-66
2024/02/18 08:25:35;;;;;;;5.55;4.90;;;;;;;6.88;100.00;99328.03;1223497;75;2923067;-64
2024/02/18 08:28:09;;;;;;;9.15;8.15;;;;;;;6.40;100.00;99332.50;1223668;75;2919958;-65
2024/02/18 08:30:41;;;;;;;9.85;7.95;;;;;;;6.14;100.00;99330.47;1222142;75;2934076;-64
2024/02/18 08:33:14;;;;;;;10.85;8.80;;;;;;;5.77;100.00;99326.50;1224105;75;2921873;-65
2024/02/18 08:35:47;;;;;;;10.20;8.25;;;;;;;5.92;100.00;99322.50;1223608;75;2917324;-64
2024/02/18 08:38:23;;;;;;;9.60;8.10;;;;;;;5.99;100.00;99324.41;1223971;75;2919229;-65
2024/02/18 08:40:55;;;;;;;9.25;7.55;;;;;;;6.56;100.00;99323.75;1223511;75;2919229;-66
2024/02/18 08:43:28;;;;;;;7.60;6.35;;;;;;;7.61;100.00;99321.09;1223876;75;2921638;-64
2024/02/18 08:46:01;;;;;;;8.40;6.85;;;;;;;7.87;100.00;99310.56;1224659;75;2917313;-65
2024/02/18 08:48:34;;;;;;;8.30;7.20;;;;;;;8.32;100.00;99312.81;1224253;75;2916381;-63
2024/02/18 08:51:08;;;;;;;6.95;6.05;;;;;;;9.69;100.00;99307.91;1223550;75;2917473;-64
2024/02/18 08:53:43;;;;;;;18.90;14.00;;;;;;;9.92;100.00;99296.00;1224109;75;2918274;-63
2024/02/18 08:56:17;;;;;;;12.10;10.00;;;;;;;9.62;100.00;99291.66;1222165;75;2960923;-64
2024/02/18 08:58:50;;;;;;;11.90;9.40;;;;;;;10.87;100.00;99296.47;1223854;75;2926124;-66
2024/02/18 09:01:23;;;;;;;11.65;9.40;;;;;;;10.63;100.00;99296.00;1224657;75;2923880;-64
2024/02/18 09:03:56;;;;;;;9.35;7.85;;;;;;;10.88;100.00;99290.56;1224101;75;2916340;-65
2024/02/18 09:06:29;;;;;;;8.35;7.10;;;;;;;11.07;100.00;99294.31;1224444;75;2918995;-64
2024/02/18 09:09:04;;;;;;;6.95;5.50;;;;;;;12.47;100.00;99294.38;1223554;75;2925456;-68
2024/02/18 09:11:37;;;;;;;8.40;6.50;;;;;;;11.17;100.00;99286.94;1223407;75;2914666;-66
2024/02/18 09:14:10;;;;;;;6.10;5.15;;;;;;;12.00;96.95;99289.75;1221820;75;3009857;-67
2024/02/18 09:16:43;;;;;;;6.60;5.90;;;;;;;11.12;100.00;99279.28;1223804;75;2934087;-68
2024/02/18 09:19:16;;;;;;;7.95;6.80;;;;;;;10.00;100.00;99283.66;1223350;75;2926545;-66
2024/02/18 09:21:49;;;;;;;8.05;6.40;;;;;;;10.82;100.00;99280.59;1222723;75;2934288;-65
2024/02/18 09:24:24;;;;;;;10.50;7.15;;;;;;;10.41;100.00;99285.69;1222901;75;2929227;-68
2024/02/18 09:26:57;;;;;;;7.40;6.00;;;;;;;11.40;100.00;99274.88;1222727;75;2932337;-66
2024/02/18 09:29:30;;;;;;;7.55;6.50;;;;;;;10.14;100.00;99277.78;1222544;75;2924910;-65
2024/02/18 09:32:03;;;;;;;8.35;6.40;;;;;;;10.06;100.00;99268.25;1222557;75;2922041;-68
2024/02/18 09:34:37;;;;;;;9.00;6.30;;;;;;;11.17;100.00;99267.75;1223452;75;2919206;-65
2024/02/18 09:37:10;;;;;;;7.70;6.30;;;;;;;11.52;100.00;99260.38;1223321;75;2917744;-67
2024/02/18 09:39:45;;;;;;;8.40;6.75;;;;;;;11.91;100.00;99252.03;1222983;75;2914256;-66
2024/02/18 09:42:19;;;;;;;8.60;6.80;;;;;;;12.34;95.58;99253.25;1223511;75;2902240;-66
2024/02/18 09:44:54;;;;;;;7.70;6.80;;;;;;;12.90;90.07;99246.81;1221674;75;2912107;-67
2024/02/18 09:47:28;;;;;;;8.70;6.60;;;;;;;13.06;91.87;99251.31;1223359;75;2916273;-65
2024/02/18 09:50:02;;;;;;;7.35;6.00;;;;;;;13.46;89.75;99246.97;1222043;75;2929408;-68
2024/02/18 09:52:36;;;;;;;7.30;5.90;;;;;;;13.05;93.46;99252.50;1219559;75;3021661;-65
2024/02/18 09:55:13;;;;;;;7.55;6.35;;;;;;;12.28;98.83;99244.81;1222217;75;2927333;-69
2024/02/18 09:57:46;;;;;;;7.60;6.35;;;;;;;12.51;98.22;99243.59;1221787;75;2914567;-66
2024/02/18 10:00:20;;;;;;;6.60;5.80;;;;;;;13.08;97.80;99239.84;1222577;75;2938920;-67
2024/02/18 10:02:53;;;;;;;7.40;5.75;;;;;;;13.63;90.12;99228.94;1222403;75;2915256;-65
2024/02/18 10:05:26;;;;;;;7.55;6.25;;;;;;;13.46;91.68;99225.72;1222643;83;2915697;-67
2024/02/18 10:08:05;;;;;;;7.20;6.00;;;;;;;13.44;91.65;99225.41;1221793;75;2918406;-66
2024/02/18 10:10:41;;;;;;;7.35;6.10;;;;;;;13.26;92.29;99222.63;1221414;75;2919654;-67
2024/02/18 10:13:14;;;;;;;7.35;5.90;;;;;;;12.70;99.85;99216.97;1222469;75;2921628;-65
2024/02/18 10:15:48;;;;;;;6.90;5.85;;;;;;;13.67;90.63;99213.06;1221509;75;2929091;-66
2024/02/18 10:18:24;;;;;;;7.90;6.30;;;;;;;14.05;88.77;99212.56;1222058;75;2915861;-65
2024/02/18 10:20:57;;;;;;;6.60;5.80;;;;;;;15.54;79.25;99213.50;1222792;75;2918565;-68
2024/02/18 10:23:30;;;;;;;7.45;5.75;;;;;;;15.88;76.96;99203.88;1223381;75;2913808;-66
2024/02/18 10:26:07;;;;;;;10.05;6.40;;;;;;;14.38;80.32;99206.41;1222912;75;2925241;-68
2024/02/18 10:28:40;;;;;;;7.70;6.20;;;;;;;14.76;81.56;99199.53;1224145;75;2921993;-69
2024/02/18 10:31:13;;;;;;;8.75;5.90;;;;;;;14.50;81.62;99193.63;1223961;75;2915206;-69
2024/02/18 10:33:46;;;;;;;6.65;5.45;;;;;;;15.21;78.36;99191.50;1223496;75;2917097;-67
2024/02/18 10:36:22;;;;;;;5.20;4.70;;;;;;;15.29;77.74;99187.13;1224152;75;2913809;-66
2024/02/18 10:39:00;;;;;;;6.45;5.50;;;;;;;15.32;76.74;99184.22;1223170;75;2922430;-65
2024/02/18 10:41:40;;;;;;;6.70;4.75;;;;;;;15.38;74.83;99178.03;1222674;75;2922276;-69
2024/02/18 10:44:16;;;;;;;4.90;4.15;;;;;;;15.86;73.24;99183.50;1223900;75;2916301;-68
2024/02/18 10:46:53;;;;;;;6.15;4.40;;;;;;;15.68;75.25;99182.41;1222142;75;2917227;-67
2024/02/18 10:49:33;;;;;;;4.70;4.15;;;;;;;16.28;71.85;99174.91;1223185;75;2917765;-66
2024/02/18 10:52:18;;;;;;;4.70;4.00;;;;;;;16.54;71.00;99168.78;1222799;75;2939957;-66
2024/02/18 10:55:03;;;;;;;6.15;4.75;;;;;;;15.30;71.93;99172.88;1222458;75;2915904;-67
2024/02/18 10:57:54;;;;;;;4.65;4.15;;;;;;;16.14;70.39;99159.88;1222209;75;2926094;-67
2024/02/18 11:00:29;;;;;;;5.20;3.90;;;;;;;16.49;67.65;99167.47;1222976;75;2933055;-67
2024/02/18 11:03:13;;;;;;;4.70;4.15;;;;;;;15.36;70.72;99170.22;1223704;75;2922162;-65
2024/02/18 11:05:48;;;;;;;4.30;3.85;;;;;;;16.07;67.95;99162.28;1170690;75;5409001;-64
2024/02/18 11:08:21;;;;;;;4.35;3.80;;;;;;;16.02;68.98;99160.94;1222159;75;2958131;-68
2024/02/18 11:10:56;;;;;;;5.65;4.00;;;;;;;16.19;67.32;99153.69;1187608;75;5639212;-69
2024/02/18 11:13:32;;;;;;;5.30;4.35;;;;;;;15.19;68.10;99153.31;1186333;75;5799168;-68
2024/02/18 11:16:06;;;;;;;4.35;3.50;;;;;;;15.96;65.04;99135.22;1223236;75;2923317;-68
2024/02/18 11:18:43;;;;;;;4.95;3.65;;;;;;;15.51;66.07;99132.41;1222531;75;2924024;-67
2024/02/18 11:21:17;;;;;;;3.70;3.25;;;;;;;16.21;67.25;99131.13;1223293;75;2923674;-67
2024/02/18 11:23:50;;;;;;;4.20;3.40;;;;;;;16.00;64.49;99129.50;1223231;75;2925013;-67
2024/02/18 11:26:24;;;;;;;3.80;3.30;;;;;;;16.73;63.07;99119.53;1223082;75;2930456;-66
2024/02/18 11:29:05;;;;;;;6.45;4.30;;;;;;;16.12;61.88;99126.44;1223007;75;2929339;-67
2024/02/18 11:31:38;;;;;;;5.15;3.70;;;;;;;15.85;62.71;99118.44;1223571;75;2918698;-66
2024/02/18 11:34:12;;;;;;;7.55;4.85;;;;;;;16.67;60.15;99111.19;1223834;75;2921300;-69
2024/02/18 11:36:45;;;;;;;3.35;2.95;;;;;;;17.50;59.80;99120.25;1223419;83;2926430;-69
2024/02/18 11:39:18;;;;;;;4.65;3.25;;;;;;;16.32;61.04;99109.16;1220593;75;3008781;-67
2024/02/18 11:41:56;;;;;;;3.90;3.20;;;;;;;16.15;62.38;99099.84;1224612;75;2918675;-68
2024/02/18 11:44:32;;;;;;;4.10;3.30;;;;;;;15.46;63.85;99101.91;1219751;75;2932399;-69
2024/02/18 11:47:13;;;;;;;4.40;3.75;;;;;;;15.85;62.32;99101.88;1223195;75;2916165;-68